Weather at Boise Air Terminal/Gowen Field

Public forecast

Using degrees Fahrenheit for public forecast. Weather courtesy of forecast.io.

Current aviation weather report (METAR) for Boise Air Terminal/Gowen Field

2024/05/28 19:53 (retrieved 21 minutes ago)

KBOI 281953Z 31009KT 10SM CLR 29/06 A2989 RMK AO2 SLP095 T02890061

Aviation forecast (TAF) for Boise Air Terminal/Gowen Field

2024/05/28 18:22 (retrieved 2 hours ago)

TAF KBOI 281720Z 2818/2918 01008KT P6SM SCT200 FM282000 30008KT P6SM VCSH SCT100 FM282200 31010KT P6SM VCTS FEW050CB BKN100 TEMPO 2900/2904 VRB20G35KT 6SM -TSRA BKN050CB FM290500 31012G22KT P6SM SCT070